createdAt,value
2023-01-26T00:00:45.312Z,14.57
2023-01-26T00:03:58.139Z,14.55
2023-01-26T00:07:10.571Z,15.07
2023-01-26T00:10:23.174Z,16.42
2023-01-26T00:13:35.629Z,15.38
2023-01-26T00:16:48.208Z,15.45
2023-01-26T00:20:00.608Z,16.02
2023-01-26T00:23:13.223Z,15.85
2023-01-26T00:26:26.111Z,15.68
2023-01-26T00:29:38.743Z,15.10
2023-01-26T00:32:51.076Z,16.08
2023-01-26T00:36:03.876Z,15.07
2023-01-26T00:39:16.988Z,15.48
2023-01-26T00:42:29.637Z,16.33
2023-01-26T00:45:42.410Z,15.77
2023-01-26T00:48:55.097Z,13.98
2023-01-26T00:52:07.500Z,15.68
2023-01-26T00:55:20.318Z,15.40
2023-01-26T00:58:32.627Z,16.85
2023-01-26T01:01:45.355Z,15.25
2023-01-26T01:04:59.073Z,15.30
2023-01-26T01:08:11.732Z,15.15
2023-01-26T01:11:24.052Z,15.00
2023-01-26T01:14:36.907Z,14.87
2023-01-26T01:17:49.237Z,15.23
2023-01-26T01:21:08.835Z,14.87
2023-01-26T01:24:21.259Z,15.40
2023-01-26T01:27:34.028Z,15.80
2023-01-26T01:30:46.431Z,15.60
2023-01-26T01:33:59.908Z,14.95
2023-01-26T01:37:12.240Z,14.50
2023-01-26T01:40:24.827Z,14.60
2023-01-26T01:43:37.362Z,13.80
2023-01-26T01:46:53.015Z,14.73
2023-01-26T01:50:07.201Z,15.40
2023-01-26T01:53:24.692Z,14.95
2023-01-26T01:56:37.389Z,15.95
2023-01-26T01:59:53.634Z,15.13
2023-01-26T02:03:20.987Z,15.38
2023-01-26T02:06:42.404Z,14.85
2023-01-26T02:10:13.440Z,15.82
2023-01-26T02:13:26.152Z,15.35
2023-01-26T02:16:40.079Z,14.02
2023-01-26T02:20:16.983Z,15.23
2023-01-26T02:23:47.981Z,15.38
2023-01-26T02:27:00.942Z,15.07
2023-01-26T02:30:14.063Z,14.85
2023-01-26T02:33:28.699Z,14.30
2023-01-26T02:36:41.581Z,15.95
2023-01-26T02:39:57.167Z,14.45
2023-01-26T02:43:10.134Z,14.30
2023-01-26T02:46:23.209Z,14.23
2023-01-26T02:49:47.969Z,13.50
2023-01-26T02:53:00.809Z,12.50
2023-01-26T02:56:14.295Z,11.60
2023-01-26T02:59:26.682Z,11.38
2023-01-26T03:02:40.259Z,11.93
2023-01-26T03:05:52.798Z,12.75
2023-01-26T03:09:05.443Z,13.57
2023-01-26T03:12:17.839Z,13.10
2023-01-26T03:15:44.060Z,12.73
2023-01-26T03:19:15.494Z,12.60
2023-01-26T03:22:46.567Z,12.45
2023-01-26T03:26:17.519Z,10.05
2023-01-26T03:29:30.396Z,10.02
2023-01-26T03:32:43.146Z,10.52
2023-01-26T03:35:56.335Z,10.38
2023-01-26T03:39:09.143Z,11.23
2023-01-26T03:42:40.498Z,12.00
2023-01-26T03:46:11.763Z,12.23
2023-01-26T03:49:42.735Z,11.23
2023-01-26T03:53:13.837Z,12.00
2023-01-26T03:56:32.558Z,11.45
2023-01-26T03:59:45.646Z,11.05
2023-01-26T04:03:18.671Z,11.15
2023-01-26T04:06:50.431Z,10.25
2023-01-26T04:10:03.100Z,10.05
2023-01-26T04:13:35.026Z,10.90
2023-01-26T04:17:06.599Z,10.48
2023-01-26T04:20:38.168Z,10.50
2023-01-26T04:23:51.153Z,10.15
2023-01-26T04:27:03.817Z,9.63
2023-01-26T04:30:17.149Z,10.65
2023-01-26T04:33:29.809Z,10.02
2023-01-26T04:36:42.638Z,11.12
2023-01-26T04:39:55.278Z,11.93
2023-01-26T04:43:07.709Z,10.55
2023-01-26T04:46:21.870Z,10.25
2023-01-26T04:49:34.882Z,10.90
2023-01-26T04:52:48.198Z,10.15
2023-01-26T04:56:01.260Z,9.98
2023-01-26T04:59:14.937Z,9.98
2023-01-26T05:02:27.762Z,11.77
2023-01-26T05:05:40.474Z,11.68
2023-01-26T05:08:53.247Z,10.25
2023-01-26T05:12:24.706Z,10.15
2023-01-26T05:15:38.067Z,9.85
2023-01-26T05:18:50.765Z,9.50
2023-01-26T05:22:03.190Z,9.45
2023-01-26T05:25:16.371Z,9.48
2023-01-26T05:28:29.921Z,9.18
2023-01-26T05:31:42.585Z,8.52
2023-01-26T05:34:55.084Z,8.90
2023-01-26T05:38:07.801Z,8.88
2023-01-26T05:41:20.218Z,8.80
2023-01-26T05:44:33.518Z,9.00
2023-01-26T05:47:46.178Z,8.85
2023-01-26T05:50:59.051Z,8.75
2023-01-26T05:54:11.526Z,8.82
2023-01-26T05:57:25.208Z,8.10
2023-01-26T06:00:38.064Z,7.60
2023-01-26T06:03:51.129Z,8.38
2023-01-26T06:07:03.629Z,13.32
2023-01-26T06:10:16.811Z,12.32
2023-01-26T06:13:31.024Z,11.60
2023-01-26T06:16:44.475Z,10.85
2023-01-26T06:19:56.873Z,10.00
2023-01-26T06:23:12.008Z,10.93
2023-01-26T06:26:24.933Z,10.07
2023-01-26T06:29:39.707Z,10.02
2023-01-26T06:32:53.482Z,11.52
2023-01-26T06:36:10.077Z,11.02
2023-01-26T06:39:22.780Z,11.93
2023-01-26T06:42:35.588Z,12.52
2023-01-26T06:45:49.793Z,12.75
2023-01-26T06:49:04.086Z,12.55
2023-01-26T06:52:33.233Z,12.40
2023-01-26T06:55:46.690Z,11.48
2023-01-26T06:58:59.939Z,11.60
2023-01-26T07:02:16.910Z,9.88
2023-01-26T07:05:29.325Z,10.03
2023-01-26T07:08:41.975Z,9.73
2023-01-26T07:11:54.317Z,9.77
2023-01-26T07:15:07.673Z,10.20
2023-01-26T07:18:19.993Z,10.27
2023-01-26T07:21:32.915Z,9.60
2023-01-26T07:24:45.280Z,11.43
2023-01-26T07:27:58.557Z,11.85
2023-01-26T07:31:11.332Z,10.48
2023-01-26T07:34:24.052Z,10.60
2023-01-26T07:37:36.506Z,9.40
2023-01-26T07:40:49.408Z,10.85
2023-01-26T07:44:02.092Z,11.43
2023-01-26T07:47:15.342Z,11.40
2023-01-26T07:50:27.711Z,10.38
2023-01-26T07:53:42.303Z,8.90
2023-01-26T07:56:54.718Z,9.27
2023-01-26T08:00:08.242Z,9.32
2023-01-26T08:03:27.009Z,8.98
2023-01-26T08:06:39.617Z,8.43
2023-01-26T08:09:52.258Z,9.30
2023-01-26T08:13:04.965Z,9.07
2023-01-26T08:16:17.470Z,9.32
2023-01-26T08:19:30.134Z,8.95
2023-01-26T08:22:42.483Z,9.85
2023-01-26T08:25:55.110Z,9.73
2023-01-26T08:29:07.536Z,8.63
2023-01-26T08:32:20.228Z,9.57
2023-01-26T08:35:32.879Z,9.77
2023-01-26T08:38:45.588Z,8.65
2023-01-26T08:41:57.966Z,8.70
2023-01-26T08:45:11.101Z,8.55
2023-01-26T08:48:23.565Z,8.95
2023-01-26T08:51:36.191Z,8.30
2023-01-26T08:54:48.572Z,8.20
2023-01-26T08:58:01.253Z,8.85
2023-01-26T09:01:15.036Z,8.93
2023-01-26T09:04:27.733Z,9.52
2023-01-26T09:07:40.268Z,9.80
2023-01-26T09:10:52.934Z,9.77
2023-01-26T09:14:05.250Z,9.40
2023-01-26T09:17:17.908Z,9.50
2023-01-26T09:20:30.262Z,10.52
2023-01-26T09:23:43.939Z,10.32
2023-01-26T09:26:56.947Z,8.90
2023-01-26T09:30:10.261Z,9.40
2023-01-26T09:33:25.415Z,9.23
2023-01-26T09:36:40.583Z,9.82
2023-01-26T09:39:53.922Z,8.70
2023-01-26T09:43:21.474Z,10.70
2023-01-26T09:46:45.762Z,10.82
2023-01-26T09:50:03.544Z,9.65
2023-01-26T09:53:24.619Z,10.23
2023-01-26T09:56:37.285Z,10.82
2023-01-26T10:00:03.355Z,10.52
2023-01-26T10:03:35.838Z,9.25
2023-01-26T10:06:48.473Z,9.38
2023-01-26T10:10:01.375Z,10.70
2023-01-26T10:13:14.787Z,9.60
2023-01-26T10:16:27.283Z,9.35
2023-01-26T10:19:42.912Z,10.57
2023-01-26T10:22:56.917Z,9.70
2023-01-26T10:26:09.485Z,9.23
2023-01-26T10:29:21.820Z,10.77
2023-01-26T10:32:36.716Z,10.27
2023-01-26T10:35:49.266Z,9.73
2023-01-26T10:39:11.252Z,10.20
2023-01-26T10:42:23.593Z,11.80
2023-01-26T10:45:44.836Z,11.50
2023-01-26T10:49:02.816Z,10.00
2023-01-26T10:52:17.767Z,10.90
2023-01-26T10:55:31.055Z,10.50
2023-01-26T10:58:48.741Z,10.00
2023-01-26T11:02:02.092Z,10.68
2023-01-26T11:05:18.976Z,11.68
2023-01-26T11:08:35.669Z,10.57
2023-01-26T11:12:05.775Z,10.73
2023-01-26T11:15:24.960Z,11.35
2023-01-26T11:18:52.545Z,11.77
2023-01-26T11:22:10.041Z,10.15
2023-01-26T11:25:37.942Z,11.23
2023-01-26T11:28:50.209Z,10.93
2023-01-26T11:32:05.501Z,10.90
2023-01-26T11:35:33.052Z,10.50
2023-01-26T11:38:57.130Z,11.02
2023-01-26T11:42:31.103Z,11.30
2023-01-26T11:46:31.720Z,10.65
2023-01-26T11:50:01.876Z,10.27
2023-01-26T11:53:28.623Z,10.43
2023-01-26T11:56:51.579Z,12.07
2023-01-26T12:00:05.951Z,11.75
2023-01-26T12:03:25.880Z,11.80
2023-01-26T12:06:40.846Z,12.52
2023-01-26T12:09:53.190Z,11.35
2023-01-26T12:13:10.471Z,11.23
2023-01-26T12:16:29.075Z,10.98
2023-01-26T12:20:23.249Z,11.27
2023-01-26T12:24:04.060Z,12.95
2023-01-26T12:27:26.208Z,12.37
2023-01-26T12:30:41.464Z,13.73
2023-01-26T12:33:55.706Z,15.70
2023-01-26T12:37:30.038Z,11.88
2023-01-26T12:40:57.620Z,14.07
2023-01-26T12:44:21.740Z,14.10
2023-01-26T12:47:48.769Z,12.73
2023-01-26T12:51:04.134Z,13.13
2023-01-26T12:54:40.483Z,11.52
2023-01-26T12:57:55.207Z,11.18
2023-01-26T13:01:16.050Z,10.35
2023-01-26T13:04:28.650Z,10.75
2023-01-26T13:07:41.278Z,11.20
2023-01-26T13:10:55.668Z,10.77
2023-01-26T13:14:31.640Z,10.73
2023-01-26T13:18:00.027Z,10.00
2023-01-26T13:21:12.643Z,11.85
2023-01-26T13:24:25.632Z,11.82
2023-01-26T13:27:38.167Z,11.68
2023-01-26T13:31:04.095Z,11.60
2023-01-26T13:34:22.045Z,10.63
2023-01-26T13:37:52.994Z,11.10
2023-01-26T13:41:14.160Z,11.80
2023-01-26T13:44:50.035Z,10.90
2023-01-26T13:48:05.017Z,10.60
2023-01-26T13:51:27.017Z,11.88
2023-01-26T13:54:41.501Z,11.93
2023-01-26T13:58:13.931Z,11.88
2023-01-26T14:01:26.629Z,11.77
2023-01-26T14:04:40.630Z,11.55
2023-01-26T14:07:52.998Z,11.60
2023-01-26T14:11:14.629Z,10.63
2023-01-26T14:14:28.561Z,10.50
2023-01-26T14:17:49.095Z,10.65
2023-01-26T14:21:06.428Z,11.35
2023-01-26T14:24:48.005Z,11.10
2023-01-26T14:28:00.403Z,12.25
2023-01-26T14:31:17.060Z,11.65
2023-01-26T14:34:30.289Z,10.53
2023-01-26T14:37:43.029Z,11.50
2023-01-26T14:40:57.457Z,19.73
2023-01-26T14:44:15.629Z,14.63
2023-01-26T14:47:30.273Z,10.68
2023-01-26T14:50:44.134Z,9.95
2023-01-26T14:54:15.589Z,10.38
2023-01-26T14:57:28.244Z,10.07
2023-01-26T15:00:40.650Z,9.68
2023-01-26T15:04:08.188Z,9.73
2023-01-26T15:07:45.047Z,10.20
2023-01-26T15:11:19.541Z,10.43
2023-01-26T15:14:36.171Z,9.77
2023-01-26T15:17:50.420Z,9.68
2023-01-26T15:21:05.577Z,9.90
2023-01-26T15:24:18.262Z,8.98
2023-01-26T15:27:34.506Z,7.70
2023-01-26T15:30:48.720Z,7.82
2023-01-26T15:34:03.889Z,8.80
2023-01-26T15:37:35.123Z,12.77
2023-01-26T15:40:47.467Z,10.02
2023-01-26T15:44:00.259Z,9.05
2023-01-26T15:47:13.881Z,8.85
2023-01-26T15:50:28.429Z,9.05
2023-01-26T15:53:40.936Z,9.20
2023-01-26T15:56:53.550Z,9.00
2023-01-26T16:00:07.697Z,10.35
2023-01-26T16:03:21.033Z,9.57
2023-01-26T16:06:34.502Z,9.75
2023-01-26T16:09:49.099Z,7.93
2023-01-26T16:13:01.645Z,8.60
2023-01-26T16:16:14.842Z,10.07
2023-01-26T16:19:35.418Z,10.25
2023-01-26T16:22:48.335Z,7.18
2023-01-26T16:26:00.670Z,8.88
2023-01-26T16:29:13.293Z,9.27
2023-01-26T16:32:29.157Z,9.57
2023-01-26T16:35:41.879Z,8.02
2023-01-26T16:38:54.272Z,7.12
2023-01-26T16:42:08.383Z,7.93
2023-01-26T16:45:26.689Z,8.55
2023-01-26T16:48:40.165Z,8.77
2023-01-26T16:51:52.506Z,8.20
2023-01-26T16:55:05.485Z,8.63
2023-01-26T16:58:17.842Z,13.15
2023-01-26T17:01:37.516Z,9.07
2023-01-26T17:04:49.877Z,9.68
2023-01-26T17:08:02.466Z,10.18
2023-01-26T17:11:19.586Z,11.65
2023-01-26T17:14:32.221Z,11.60
2023-01-26T17:17:45.678Z,13.68
2023-01-26T17:21:02.651Z,11.40
2023-01-26T17:24:14.983Z,11.02
2023-01-26T17:27:27.593Z,11.55
2023-01-26T17:30:40.014Z,12.55
2023-01-26T17:33:52.742Z,12.68
2023-01-26T17:37:05.070Z,13.18
2023-01-26T17:40:17.721Z,13.15
2023-01-26T17:43:30.288Z,14.27
2023-01-26T17:46:42.910Z,15.02
2023-01-26T17:49:55.247Z,15.10
2023-01-26T17:53:07.833Z,12.60
2023-01-26T17:56:20.784Z,11.82
2023-01-26T17:59:33.412Z,10.88
2023-01-26T18:02:45.808Z,10.48
2023-01-26T18:05:58.493Z,12.32
2023-01-26T18:09:10.950Z,12.63
2023-01-26T18:12:23.546Z,14.18
2023-01-26T18:15:38.824Z,16.17
2023-01-26T18:18:55.571Z,15.30
2023-01-26T18:22:07.934Z,17.15
2023-01-26T18:25:21.568Z,15.63
2023-01-26T18:28:33.887Z,15.55
2023-01-26T18:31:48.062Z,17.33
2023-01-26T18:35:00.489Z,16.45
2023-01-26T18:38:13.137Z,16.52
2023-01-26T18:41:25.874Z,16.35
2023-01-26T18:44:38.502Z,16.20
2023-01-26T18:47:50.846Z,16.73
2023-01-26T18:51:03.919Z,15.90
2023-01-26T18:54:16.430Z,15.85
2023-01-26T18:57:29.057Z,16.65
2023-01-26T19:00:41.395Z,15.27
2023-01-26T19:03:58.678Z,16.12
2023-01-26T19:07:12.142Z,16.25
2023-01-26T19:10:24.771Z,13.85
2023-01-26T19:13:37.082Z,14.10
2023-01-26T19:16:52.581Z,12.80
2023-01-26T19:20:05.408Z,13.93
2023-01-26T19:23:18.042Z,13.82
2023-01-26T19:26:30.800Z,12.98
2023-01-26T19:29:43.497Z,14.10
2023-01-26T19:33:14.511Z,13.43
2023-01-26T19:36:27.878Z,13.73
2023-01-26T19:39:40.229Z,13.50
2023-01-26T19:42:52.845Z,14.07
2023-01-26T19:46:05.779Z,13.60
2023-01-26T19:49:20.181Z,13.82
2023-01-26T19:52:32.560Z,13.52
2023-01-26T19:55:45.154Z,13.60
2023-01-26T19:59:02.552Z,14.23
2023-01-26T20:02:15.276Z,13.00
2023-01-26T20:05:27.943Z,13.02
2023-01-26T20:08:40.245Z,14.95
2023-01-26T20:11:52.851Z,15.15
2023-01-26T20:15:05.749Z,16.70
2023-01-26T20:18:18.557Z,17.77
2023-01-26T20:21:31.242Z,17.10
2023-01-26T20:24:44.044Z,17.98
2023-01-26T20:27:56.428Z,17.15
2023-01-26T20:31:11.407Z,16.10
2023-01-26T20:34:23.793Z,14.93
2023-01-26T20:37:36.379Z,16.60
2023-01-26T20:40:48.726Z,17.02
2023-01-26T20:44:03.515Z,15.05
2023-01-26T20:47:16.209Z,16.23
2023-01-26T20:50:28.924Z,17.45
2023-01-26T20:53:42.033Z,16.05
2023-01-26T20:56:54.683Z,13.18
2023-01-26T21:00:07.821Z,11.60
2023-01-26T21:03:20.533Z,11.88
2023-01-26T21:06:33.023Z,11.23
2023-01-26T21:09:45.640Z,11.43
2023-01-26T21:12:57.943Z,12.05
2023-01-26T21:16:12.392Z,11.10
2023-01-26T21:19:24.805Z,11.95
2023-01-26T21:22:37.464Z,11.00
2023-01-26T21:25:50.013Z,10.52
2023-01-26T21:29:02.740Z,10.63
2023-01-26T21:32:15.729Z,11.32
2023-01-26T21:35:28.368Z,12.13
2023-01-26T21:38:42.301Z,11.02
2023-01-26T21:41:58.983Z,11.63
2023-01-26T21:45:30.212Z,11.50
2023-01-26T21:48:42.865Z,11.50
2023-01-26T21:52:13.762Z,11.68
2023-01-26T21:55:26.349Z,12.40
2023-01-26T21:58:54.040Z,12.32
2023-01-26T22:02:06.687Z,11.88
2023-01-26T22:05:19.295Z,12.10
2023-01-26T22:08:33.016Z,11.65
2023-01-26T22:11:45.717Z,12.02
2023-01-26T22:14:58.160Z,13.68
2023-01-26T22:18:10.759Z,12.43
2023-01-26T22:21:23.167Z,12.15
2023-01-26T22:24:35.831Z,12.80
2023-01-26T22:27:48.235Z,12.02
2023-01-26T22:31:03.185Z,12.43
2023-01-26T22:34:15.761Z,11.65
2023-01-26T22:37:28.365Z,11.25
2023-01-26T22:40:40.664Z,11.93
2023-01-26T22:43:55.210Z,11.70
2023-01-26T22:47:07.499Z,12.25
2023-01-26T22:50:20.085Z,10.93
2023-01-26T22:53:32.458Z,10.65
2023-01-26T22:56:45.044Z,10.27
2023-01-26T22:59:57.443Z,10.23
2023-01-26T23:03:10.261Z,11.23
2023-01-26T23:06:22.664Z,11.68
2023-01-26T23:09:35.278Z,10.27
2023-01-26T23:12:47.583Z,11.15
2023-01-26T23:16:00.197Z,10.65
2023-01-26T23:19:12.503Z,11.95
2023-01-26T23:22:25.196Z,11.38
2023-01-26T23:25:52.687Z,11.15
2023-01-26T23:32:17.369Z,9.27
2023-01-26T23:35:29.991Z,11.10
2023-01-26T23:38:42.429Z,10.45
2023-01-26T23:41:55.046Z,10.88
2023-01-26T23:45:07.891Z,10.15
2023-01-26T23:48:20.488Z,10.55
2023-01-26T23:51:32.937Z,11.70
2023-01-26T23:54:46.240Z,11.25
2023-01-26T23:57:58.630Z,11.65
